sensor_id;sensor_type;location;lat;lon;timestamp;pressure;altitude;pressure_sealevel;temperature;humidity
42519;BME280;28147;47.520;18.920;2022-07-23T00:00:08;98417.50;;;26.16;42.71
42519;BME280;28147;47.520;18.920;2022-07-23T00:02:33;98414.19;;;26.10;42.90
42519;BME280;28147;47.520;18.920;2022-07-23T00:04:59;98406.94;;;26.14;42.64
42519;BME280;28147;47.520;18.920;2022-07-23T00:07:24;98410.78;;;26.13;43.32
42519;BME280;28147;47.520;18.920;2022-07-23T00:09:50;98413.06;;;26.11;43.42
42519;BME280;28147;47.520;18.920;2022-07-23T00:12:15;98406.59;;;26.16;43.19
42519;BME280;28147;47.520;18.920;2022-07-23T00:14:41;98412.31;;;26.23;43.92
42519;BME280;28147;47.520;18.920;2022-07-23T00:17:06;98407.34;;;26.04;44.01
42519;BME280;28147;47.520;18.920;2022-07-23T00:19:31;98406.16;;;25.93;44.74
42519;BME280;28147;47.520;18.920;2022-07-23T00:21:57;98398.31;;;25.91;43.97
42519;BME280;28147;47.520;18.920;2022-07-23T00:24:22;98397.75;;;25.98;43.97
42519;BME280;28147;47.520;18.920;2022-07-23T00:26:48;98401.78;;;25.80;44.61
42519;BME280;28147;47.520;18.920;2022-07-23T00:29:13;98402.25;;;25.82;44.53
42519;BME280;28147;47.520;18.920;2022-07-23T00:31:38;98398.28;;;25.70;45.11
42519;BME280;28147;47.520;18.920;2022-07-23T00:34:04;98399.88;;;25.80;44.19
42519;BME280;28147;47.520;18.920;2022-07-23T00:36:30;98398.97;;;25.67;44.66
42519;BME280;28147;47.520;18.920;2022-07-23T00:38:56;98408.53;;;25.73;43.88
42519;BME280;28147;47.520;18.920;2022-07-23T00:41:22;98406.41;;;26.00;42.20
42519;BME280;28147;47.520;18.920;2022-07-23T00:43:48;98409.53;;;26.11;42.23
42519;BME280;28147;47.520;18.920;2022-07-23T00:46:13;98400.63;;;26.02;43.32
42519;BME280;28147;47.520;18.920;2022-07-23T00:48:43;98410.47;;;25.94;43.50
42519;BME280;28147;47.520;18.920;2022-07-23T00:51:09;98413.03;;;25.78;43.26
42519;BME280;28147;47.520;18.920;2022-07-23T00:53:34;98407.69;;;25.82;43.75
42519;BME280;28147;47.520;18.920;2022-07-23T00:56:00;98403.66;;;25.88;42.60
42519;BME280;28147;47.520;18.920;2022-07-23T00:58:25;98404.31;;;25.85;44.02
42519;BME280;28147;47.520;18.920;2022-07-23T01:00:50;98404.44;;;25.88;44.21
42519;BME280;28147;47.520;18.920;2022-07-23T01:03:16;98391.56;;;25.68;44.29
42519;BME280;28147;47.520;18.920;2022-07-23T01:05:41;98397.78;;;25.77;44.20
42519;BME280;28147;47.520;18.920;2022-07-23T01:08:07;98397.84;;;25.68;43.99
42519;BME280;28147;47.520;18.920;2022-07-23T01:10:32;98400.09;;;25.66;44.01
42519;BME280;28147;47.520;18.920;2022-07-23T01:15:28;98396.69;;;25.48;44.57
42519;BME280;28147;47.520;18.920;2022-07-23T01:17:53;98402.22;;;25.61;44.32
42519;BME280;28147;47.520;18.920;2022-07-23T01:20:19;98393.59;;;25.59;43.79
42519;BME280;28147;47.520;18.920;2022-07-23T01:22:45;98389.84;;;25.63;43.65
42519;BME280;28147;47.520;18.920;2022-07-23T01:25:10;98389.06;;;25.63;44.28
42519;BME280;28147;47.520;18.920;2022-07-23T01:27:36;98398.81;;;25.64;43.19
42519;BME280;28147;47.520;18.920;2022-07-23T01:30:03;98394.38;;;25.59;43.88
42519;BME280;28147;47.520;18.920;2022-07-23T01:32:29;98396.84;;;25.52;44.33
42519;BME280;28147;47.520;18.920;2022-07-23T01:34:54;98399.16;;;25.41;44.03
42519;BME280;28147;47.520;18.920;2022-07-23T01:37:20;98398.34;;;25.41;43.91
42519;BME280;28147;47.520;18.920;2022-07-23T01:39:45;98396.63;;;25.36;44.54
42519;BME280;28147;47.520;18.920;2022-07-23T01:42:11;98390.66;;;25.43;44.84
42519;BME280;28147;47.520;18.920;2022-07-23T01:44:36;98399.00;;;25.38;44.84
42519;BME280;28147;47.520;18.920;2022-07-23T01:47:02;98395.31;;;25.42;44.83
42519;BME280;28147;47.520;18.920;2022-07-23T01:49:27;98393.16;;;25.27;44.16
42519;BME280;28147;47.520;18.920;2022-07-23T01:51:53;98393.69;;;25.20;43.29
42519;BME280;28147;47.520;18.920;2022-07-23T01:54:29;98388.97;;;25.30;44.68
42519;BME280;28147;47.520;18.920;2022-07-23T01:56:54;98391.91;;;25.45;43.63
42519;BME280;28147;47.520;18.920;2022-07-23T01:59:20;98384.16;;;25.27;44.40
42519;BME280;28147;47.520;18.920;2022-07-23T02:01:46;98395.31;;;25.42;44.31
42519;BME280;28147;47.520;18.920;2022-07-23T02:04:11;98383.84;;;25.28;45.17
42519;BME280;28147;47.520;18.920;2022-07-23T02:06:37;98378.13;;;25.21;45.16
42519;BME280;28147;47.520;18.920;2022-07-23T02:09:02;98383.09;;;25.19;44.92
42519;BME280;28147;47.520;18.920;2022-07-23T02:11:28;98384.09;;;25.14;44.74
42519;BME280;28147;47.520;18.920;2022-07-23T02:13:53;98384.09;;;25.14;45.04
42519;BME280;28147;47.520;18.920;2022-07-23T02:16:19;98387.31;;;25.16;44.69
42519;BME280;28147;47.520;18.920;2022-07-23T02:18:44;98378.78;;;25.18;45.28
42519;BME280;28147;47.520;18.920;2022-07-23T02:21:11;98390.81;;;25.17;44.74
42519;BME280;28147;47.520;18.920;2022-07-23T02:23:36;98391.81;;;25.04;45.40
42519;BME280;28147;47.520;18.920;2022-07-23T02:26:02;98387.63;;;25.06;45.66
42519;BME280;28147;47.520;18.920;2022-07-23T02:28:27;98398.09;;;25.04;45.41
42519;BME280;28147;47.520;18.920;2022-07-23T02:30:52;98394.06;;;25.10;44.66
42519;BME280;28147;47.520;18.920;2022-07-23T02:33:18;98394.53;;;25.04;45.33
42519;BME280;28147;47.520;18.920;2022-07-23T02:35:43;98398.09;;;24.95;45.33
42519;BME280;28147;47.520;18.920;2022-07-23T02:38:09;98401.78;;;24.99;45.60
42519;BME280;28147;47.520;18.920;2022-07-23T02:40:34;98403.75;;;24.90;45.76
42519;BME280;28147;47.520;18.920;2022-07-23T02:43:00;98403.25;;;24.88;45.48
42519;BME280;28147;47.520;18.920;2022-07-23T02:45:25;98400.53;;;24.88;45.18
42519;BME280;28147;47.520;18.920;2022-07-23T02:47:51;98388.56;;;24.81;45.47
42519;BME280;28147;47.520;18.920;2022-07-23T02:50:16;98394.81;;;24.81;44.80
42519;BME280;28147;47.520;18.920;2022-07-23T02:52:42;98388.06;;;24.87;44.75
42519;BME280;28147;47.520;18.920;2022-07-23T02:55:08;98394.81;;;24.81;44.68
42519;BME280;28147;47.520;18.920;2022-07-23T02:57:33;98395.47;;;24.78;45.41
42519;BME280;28147;47.520;18.920;2022-07-23T02:59:59;98392.63;;;24.74;44.48
42519;BME280;28147;47.520;18.920;2022-07-23T03:02:24;98382.53;;;24.75;45.48
42519;BME280;28147;47.520;18.920;2022-07-23T03:04:50;98391.78;;;24.83;45.48
42519;BME280;28147;47.520;18.920;2022-07-23T03:07:16;98386.53;;;24.78;45.52
42519;BME280;28147;47.520;18.920;2022-07-23T03:09:42;98386.03;;;24.75;45.21
42519;BME280;28147;47.520;18.920;2022-07-23T03:12:07;98381.72;;;24.74;44.78
42519;BME280;28147;47.520;18.920;2022-07-23T03:14:33;98383.59;;;24.83;45.09
42519;BME280;28147;47.520;18.920;2022-07-23T03:16:58;98383.91;;;24.81;44.36
42519;BME280;28147;47.520;18.920;2022-07-23T03:19:25;98380.94;;;24.65;44.66
42519;BME280;28147;47.520;18.920;2022-07-23T03:21:50;98389.09;;;24.65;44.32
42519;BME280;28147;47.520;18.920;2022-07-23T03:24:16;98383.66;;;24.74;45.07
42519;BME280;28147;47.520;18.920;2022-07-23T03:26:43;98382.97;;;24.77;45.13
42519;BME280;28147;47.520;18.920;2022-07-23T03:29:09;98378.72;;;24.97;44.92
42519;BME280;28147;47.520;18.920;2022-07-23T03:31:34;98385.53;;;24.82;45.17
42519;BME280;28147;47.520;18.920;2022-07-23T03:34:00;98383.47;;;25.09;44.30
42519;BME280;28147;47.520;18.920;2022-07-23T03:36:26;98384.84;;;25.23;45.27
42519;BME280;28147;47.520;18.920;2022-07-23T03:38:52;98378.03;;;25.09;45.63
42519;BME280;28147;47.520;18.920;2022-07-23T03:41:19;98389.72;;;25.09;46.79
42519;BME280;28147;47.520;18.920;2022-07-23T03:43:44;98381.06;;;25.16;46.24
42519;BME280;28147;47.520;18.920;2022-07-23T03:46:10;98383.09;;;25.19;46.66
42519;BME280;28147;47.520;18.920;2022-07-23T03:48:35;98385.97;;;25.22;47.30
42519;BME280;28147;47.520;18.920;2022-07-23T03:51:01;98385.66;;;25.45;47.13
42519;BME280;28147;47.520;18.920;2022-07-23T03:53:26;98385.00;;;25.48;46.94
42519;BME280;28147;47.520;18.920;2022-07-23T03:55:52;98384.84;;;25.44;47.33
42519;BME280;28147;47.520;18.920;2022-07-23T03:58:17;98381.97;;;25.50;46.63
42519;BME280;28147;47.520;18.920;2022-07-23T04:00:43;98380.81;;;25.51;46.69
42519;BME280;28147;47.520;18.920;2022-07-23T04:03:08;98378.38;;;25.58;45.75
42519;BME280;28147;47.520;18.920;2022-07-23T04:05:33;98381.09;;;25.58;46.35
42519;BME280;28147;47.520;18.920;2022-07-23T04:07:59;98392.97;;;25.74;46.13
42519;BME280;28147;47.520;18.920;2022-07-23T04:10:24;98392.06;;;25.70;46.37
42519;BME280;28147;47.520;18.920;2022-07-23T04:12:50;98394.72;;;25.79;46.29
42519;BME280;28147;47.520;18.920;2022-07-23T04:15:15;98398.72;;;25.81;46.58
42519;BME280;28147;47.520;18.920;2022-07-23T04:17:41;98396.72;;;25.90;46.07
42519;BME280;28147;47.520;18.920;2022-07-23T04:20:06;98396.03;;;25.93;46.23
42519;BME280;28147;47.520;18.920;2022-07-23T04:22:32;98401.09;;;25.83;46.82
42519;BME280;28147;47.520;18.920;2022-07-23T04:24:57;98395.72;;;25.74;47.01
42519;BME280;28147;47.520;18.920;2022-07-23T04:27:23;98385.53;;;25.62;46.24
42519;BME280;28147;47.520;18.920;2022-07-23T04:29:49;98403.03;;;25.61;47.54
42519;BME280;28147;47.520;18.920;2022-07-23T04:32:14;98395.50;;;25.58;48.17
42519;BME280;28147;47.520;18.920;2022-07-23T04:34:40;98400.44;;;25.86;48.81
42519;BME280;28147;47.520;18.920;2022-07-23T04:37:05;98403.06;;;26.15;48.31
42519;BME280;28147;47.520;18.920;2022-07-23T04:39:30;98407.50;;;26.20;46.57
42519;BME280;28147;47.520;18.920;2022-07-23T04:41:56;98411.16;;;26.24;47.79
42519;BME280;28147;47.520;18.920;2022-07-23T04:44:22;98411.00;;;26.08;49.81
42519;BME280;28147;47.520;18.920;2022-07-23T04:46:47;98409.44;;;26.19;49.63
42519;BME280;28147;47.520;18.920;2022-07-23T04:49:12;98417.47;;;26.37;50.04
42519;BME280;28147;47.520;18.920;2022-07-23T04:51:38;98410.56;;;26.52;50.63
42519;BME280;28147;47.520;18.920;2022-07-23T04:54:03;98409.66;;;26.48;50.48
42519;BME280;28147;47.520;18.920;2022-07-23T04:56:29;98414.00;;;26.49;50.36
42519;BME280;28147;47.520;18.920;2022-07-23T04:58:54;98416.88;;;26.77;45.83
42519;BME280;28147;47.520;18.920;2022-07-23T05:01:20;98416.66;;;27.06;46.92
42519;BME280;28147;47.520;18.920;2022-07-23T05:03:45;98408.84;;;27.17;46.11
42519;BME280;28147;47.520;18.920;2022-07-23T05:06:10;98405.56;;;27.64;45.28
42519;BME280;28147;47.520;18.920;2022-07-23T05:08:36;98408.16;;;27.85;47.04
42519;BME280;28147;47.520;18.920;2022-07-23T05:11:01;98397.19;;;28.13;46.68
42519;BME280;28147;47.520;18.920;2022-07-23T05:13:27;98405.59;;;28.48;46.05
42519;BME280;28147;47.520;18.920;2022-07-23T05:15:52;98405.16;;;28.78;45.55
42519;BME280;28147;47.520;18.920;2022-07-23T05:18:18;98406.94;;;28.70;45.16
42519;BME280;28147;47.520;18.920;2022-07-23T05:20:43;98404.47;;;28.81;44.98
42519;BME280;28147;47.520;18.920;2022-07-23T05:23:09;98404.28;;;29.21;45.14
42519;BME280;28147;47.520;18.920;2022-07-23T05:25:35;98398.66;;;29.33;44.60
42519;BME280;28147;47.520;18.920;2022-07-23T05:28:00;98404.47;;;29.48;43.99
42519;BME280;28147;47.520;18.920;2022-07-23T05:30:26;98408.06;;;29.68;44.07
42519;BME280;28147;47.520;18.920;2022-07-23T05:32:51;98408.06;;;29.68;42.96
42519;BME280;28147;47.520;18.920;2022-07-23T05:35:17;98410.44;;;29.89;43.08
42519;BME280;28147;47.520;18.920;2022-07-23T05:37:42;98406.78;;;30.00;42.58
42519;BME280;28147;47.520;18.920;2022-07-23T05:40:09;98403.50;;;29.95;41.09
42519;BME280;28147;47.520;18.920;2022-07-23T05:42:35;98403.97;;;30.16;39.77
42519;BME280;28147;47.520;18.920;2022-07-23T05:45:02;98408.91;;;30.30;40.65
42519;BME280;28147;47.520;18.920;2022-07-23T05:47:28;98405.94;;;30.39;38.50
42519;BME280;28147;47.520;18.920;2022-07-23T05:49:53;98414.75;;;30.48;37.43
42519;BME280;28147;47.520;18.920;2022-07-23T05:52:19;98411.75;;;30.57;38.85
42519;BME280;28147;47.520;18.920;2022-07-23T05:54:44;98417.38;;;30.64;39.90
42519;BME280;28147;47.520;18.920;2022-07-23T05:57:09;98407.94;;;30.84;39.42
42519;BME280;28147;47.520;18.920;2022-07-23T05:59:35;98407.69;;;30.93;39.94
42519;BME280;28147;47.520;18.920;2022-07-23T06:02:00;98410.03;;;30.94;38.75
42519;BME280;28147;47.520;18.920;2022-07-23T06:04:26;98403.47;;;30.99;38.22
42519;BME280;28147;47.520;18.920;2022-07-23T06:06:51;98403.34;;;30.92;36.25
42519;BME280;28147;47.520;18.920;2022-07-23T06:09:17;98402.59;;;31.21;34.23
42519;BME280;28147;47.520;18.920;2022-07-23T06:11:43;98394.44;;;31.02;34.36
42519;BME280;28147;47.520;18.920;2022-07-23T06:14:09;98398.28;;;31.47;35.12
42519;BME280;28147;47.520;18.920;2022-07-23T06:16:34;98390.97;;;31.58;32.88
42519;BME280;28147;47.520;18.920;2022-07-23T06:19:00;98396.31;;;31.21;33.12
42519;BME280;28147;47.520;18.920;2022-07-23T06:21:25;98389.53;;;30.88;33.41
42519;BME280;28147;47.520;18.920;2022-07-23T06:23:50;98399.50;;;31.23;33.50
42519;BME280;28147;47.520;18.920;2022-07-23T06:26:16;98391.66;;;31.25;33.10
42519;BME280;28147;47.520;18.920;2022-07-23T06:28:41;98392.94;;;31.05;32.25
42519;BME280;28147;47.520;18.920;2022-07-23T06:31:07;98393.25;;;30.99;33.02
42519;BME280;28147;47.520;18.920;2022-07-23T06:33:33;98392.94;;;31.05;32.86
42519;BME280;28147;47.520;18.920;2022-07-23T06:35:58;98391.06;;;31.12;31.47
42519;BME280;28147;47.520;18.920;2022-07-23T06:38:24;98378.50;;;31.11;32.21
42519;BME280;28147;47.520;18.920;2022-07-23T06:40:49;98388.72;;;31.37;31.98
42519;BME280;28147;47.520;18.920;2022-07-23T06:43:15;98397.16;;;31.25;31.29
42519;BME280;28147;47.520;18.920;2022-07-23T06:45:40;98391.50;;;31.14;31.08
42519;BME280;28147;47.520;18.920;2022-07-23T06:48:06;98396.69;;;31.19;31.56
42519;BME280;28147;47.520;18.920;2022-07-23T06:50:31;98396.22;;;31.40;30.68
42519;BME280;28147;47.520;18.920;2022-07-23T06:52:57;98393.25;;;31.53;30.98
42519;BME280;28147;47.520;18.920;2022-07-23T06:55:22;98402.06;;;31.65;30.75
42519;BME280;28147;47.520;18.920;2022-07-23T06:57:47;98398.84;;;31.60;30.58
42519;BME280;28147;47.520;18.920;2022-07-23T07:00:13;98393.16;;;31.76;31.61
42519;BME280;28147;47.520;18.920;2022-07-23T07:02:39;98397.88;;;32.05;30.76
42519;BME280;28147;47.520;18.920;2022-07-23T07:05:04;98392.03;;;31.80;29.24
42519;BME280;28147;47.520;18.920;2022-07-23T07:07:30;98383.94;;;31.91;29.44
42519;BME280;28147;47.520;18.920;2022-07-23T07:09:56;98397.06;;;32.42;29.73
42519;BME280;28147;47.520;18.920;2022-07-23T07:12:21;98394.75;;;32.44;29.83
42519;BME280;28147;47.520;18.920;2022-07-23T07:14:46;98390.88;;;32.52;29.86
42519;BME280;28147;47.520;18.920;2022-07-23T07:17:12;98389.38;;;32.58;29.73
42519;BME280;28147;47.520;18.920;2022-07-23T07:19:37;98386.22;;;33.04;29.90
42519;BME280;28147;47.520;18.920;2022-07-23T07:22:03;98380.94;;;32.92;29.31
42519;BME280;28147;47.520;18.920;2022-07-23T07:24:28;98383.59;;;32.74;28.86
42519;BME280;28147;47.520;18.920;2022-07-23T07:26:54;98380.00;;;33.22;29.05
42519;BME280;28147;47.520;18.920;2022-07-23T07:29:19;98386.75;;;32.76;29.29
42519;BME280;28147;47.520;18.920;2022-07-23T07:31:44;98383.72;;;32.88;29.90
42519;BME280;28147;47.520;18.920;2022-07-23T07:34:10;98380.66;;;32.97;28.88
42519;BME280;28147;47.520;18.920;2022-07-23T07:36:35;98387.06;;;32.67;28.67
42519;BME280;28147;47.520;18.920;2022-07-23T07:39:03;98387.44;;;33.14;28.79
42519;BME280;28147;47.520;18.920;2022-07-23T07:41:30;98385.72;;;32.95;27.92
42519;BME280;28147;47.520;18.920;2022-07-23T07:43:56;98386.25;;;33.08;28.54
42519;BME280;28147;47.520;18.920;2022-07-23T07:46:21;98390.47;;;33.53;28.09
42519;BME280;28147;47.520;18.920;2022-07-23T07:48:49;98384.00;;;33.28;27.42
42519;BME280;28147;47.520;18.920;2022-07-23T07:51:15;98377.13;;;33.70;28.00
42519;BME280;28147;47.520;18.920;2022-07-23T07:53:40;98379.09;;;33.69;27.50
42519;BME280;28147;47.520;18.920;2022-07-23T07:56:06;98383.94;;;33.97;27.00
42519;BME280;28147;47.520;18.920;2022-07-23T07:58:31;98385.88;;;33.93;28.21
42519;BME280;28147;47.520;18.920;2022-07-23T08:00:57;98376.88;;;33.23;27.96
42519;BME280;28147;47.520;18.920;2022-07-23T08:03:22;98389.38;;;33.10;28.37
42519;BME280;28147;47.520;18.920;2022-07-23T08:05:47;98382.19;;;33.53;27.26
42519;BME280;28147;47.520;18.920;2022-07-23T08:08:13;98388.19;;;33.73;27.29
42519;BME280;28147;47.520;18.920;2022-07-23T08:10:42;98377.56;;;33.82;26.84
42519;BME280;28147;47.520;18.920;2022-07-23T08:13:12;98372.19;;;34.14;26.48
42519;BME280;28147;47.520;18.920;2022-07-23T08:15:38;98381.66;;;34.21;26.57
42519;BME280;28147;47.520;18.920;2022-07-23T08:18:04;98383.59;;;34.09;27.08
42519;BME280;28147;47.520;18.920;2022-07-23T08:20:29;98380.47;;;34.36;26.74
42519;BME280;28147;47.520;18.920;2022-07-23T08:23:06;98380.47;;;34.36;26.70
42519;BME280;28147;47.520;18.920;2022-07-23T08:25:39;98379.78;;;34.78;26.45
42519;BME280;28147;47.520;18.920;2022-07-23T08:28:07;98380.53;;;35.04;25.56
42519;BME280;28147;47.520;18.920;2022-07-23T08:30:33;98372.25;;;34.61;27.06
42519;BME280;28147;47.520;18.920;2022-07-23T08:33:09;98376.59;;;34.76;26.19
42519;BME280;28147;47.520;18.920;2022-07-23T08:35:49;98385.66;;;34.41;26.15
42519;BME280;28147;47.520;18.920;2022-07-23T08:38:17;98379.69;;;34.39;27.19
42519;BME280;28147;47.520;18.920;2022-07-23T08:40:44;98382.94;;;34.55;26.80
42519;BME280;28147;47.520;18.920;2022-07-23T08:43:13;98380.53;;;34.57;26.79
42519;BME280;28147;47.520;18.920;2022-07-23T08:45:40;98384.09;;;34.76;26.42
42519;BME280;28147;47.520;18.920;2022-07-23T08:48:20;98384.50;;;34.99;26.51
42519;BME280;28147;47.520;18.920;2022-07-23T08:50:52;98378.16;;;34.45;26.45
42519;BME280;28147;47.520;18.920;2022-07-23T08:53:19;98371.75;;;35.45;26.22
42519;BME280;28147;47.520;18.920;2022-07-23T08:55:49;98376.09;;;35.60;25.59
42519;BME280;28147;47.520;18.920;2022-07-23T08:58:16;98373.63;;;35.80;25.76
42519;BME280;28147;47.520;18.920;2022-07-23T09:00:43;98369.09;;;36.18;25.04
42519;BME280;28147;47.520;18.920;2022-07-23T09:03:20;98366.19;;;36.36;25.48
42519;BME280;28147;47.520;18.920;2022-07-23T09:05:47;98371.50;;;36.72;23.77
42519;BME280;28147;47.520;18.920;2022-07-23T09:08:16;98366.00;;;36.68;23.56
42519;BME280;28147;47.520;18.920;2022-07-23T09:11:00;98380.81;;;36.40;23.72
42519;BME280;28147;47.520;18.920;2022-07-23T09:14:08;98377.94;;;35.92;23.58
42519;BME280;28147;47.520;18.920;2022-07-23T09:16:17;98372.53;;;36.37;23.36
42519;BME280;28147;47.520;18.920;2022-07-23T09:18:44;98373.03;;;36.21;23.74
42519;BME280;28147;47.520;18.920;2022-07-23T09:21:11;98374.31;;;36.68;24.06
42519;BME280;28147;47.520;18.920;2022-07-23T09:29:18;98375.66;;;36.49;24.09
42519;BME280;28147;47.520;18.920;2022-07-23T09:31:52;98372.25;;;36.76;24.53
42519;BME280;28147;47.520;18.920;2022-07-23T09:34:28;98375.25;;;35.74;23.97
42519;BME280;28147;47.520;18.920;2022-07-23T09:37:09;98375.28;;;36.40;23.38
42519;BME280;28147;47.520;18.920;2022-07-23T09:39:35;98378.69;;;36.66;23.58
42519;BME280;28147;47.520;18.920;2022-07-23T09:44:42;98374.16;;;36.86;22.65
42519;BME280;28147;47.520;18.920;2022-07-23T09:47:07;98373.56;;;35.94;23.54
42519;BME280;28147;47.520;18.920;2022-07-23T09:49:33;98370.28;;;36.17;23.34
42519;BME280;28147;47.520;18.920;2022-07-23T09:51:59;98365.94;;;36.75;24.06
42519;BME280;28147;47.520;18.920;2022-07-23T09:54:38;98361.56;;;36.74;23.38
42519;BME280;28147;47.520;18.920;2022-07-23T09:57:11;98362.69;;;36.28;23.40
42519;BME280;28147;47.520;18.920;2022-07-23T09:59:43;98358.66;;;36.89;23.70
42519;BME280;28147;47.520;18.920;2022-07-23T10:02:10;98362.16;;;37.00;23.04
42519;BME280;28147;47.520;18.920;2022-07-23T10:04:37;98364.19;;;36.92;22.88
42519;BME280;28147;47.520;18.920;2022-07-23T10:07:05;98353.94;;;35.56;21.80
42519;BME280;28147;47.520;18.920;2022-07-23T10:09:36;98356.59;;;35.85;22.55
42519;BME280;28147;47.520;18.920;2022-07-23T10:12:04;98351.63;;;36.21;22.83
42519;BME280;28147;47.520;18.920;2022-07-23T10:14:31;98347.47;;;35.92;23.34
42519;BME280;28147;47.520;18.920;2022-07-23T10:16:58;98348.97;;;36.07;23.71
42519;BME280;28147;47.520;18.920;2022-07-23T10:19:25;98344.91;;;36.26;23.18
42519;BME280;28147;47.520;18.920;2022-07-23T10:22:00;98354.66;;;36.45;22.73
42519;BME280;28147;47.520;18.920;2022-07-23T10:30:07;98341.88;;;37.41;23.04
42519;BME280;28147;47.520;18.920;2022-07-23T10:38:30;98333.69;;;37.30;22.44
42519;BME280;28147;47.520;18.920;2022-07-23T10:41:01;98340.47;;;35.62;24.37
42519;BME280;28147;47.520;18.920;2022-07-23T10:43:28;98326.78;;;34.94;24.32
42519;BME280;28147;47.520;18.920;2022-07-23T10:45:55;98329.25;;;36.53;23.78
42519;BME280;28147;47.520;18.920;2022-07-23T10:48:23;98316.44;;;37.12;23.07
42519;BME280;28147;47.520;18.920;2022-07-23T10:51:12;98324.75;;;37.49;22.37
42519;BME280;28147;47.520;18.920;2022-07-23T10:56:17;98323.66;;;36.01;24.47
42519;BME280;28147;47.520;18.920;2022-07-23T10:59:05;98303.47;;;36.01;24.84
42519;BME280;28147;47.520;18.920;2022-07-23T11:01:32;98305.31;;;36.22;24.15
42519;BME280;28147;47.520;18.920;2022-07-23T11:03:58;98319.03;;;36.88;23.53
42519;BME280;28147;47.520;18.920;2022-07-23T11:09:28;98306.66;;;35.99;23.96
42519;BME280;28147;47.520;18.920;2022-07-23T11:15:15;98303.00;;;35.25;25.14
42519;BME280;28147;47.520;18.920;2022-07-23T11:22:38;98306.72;;;36.44;23.00
42519;BME280;28147;47.520;18.920;2022-07-23T11:25:04;98292.97;;;36.34;23.60
42519;BME280;28147;47.520;18.920;2022-07-23T11:30:41;98290.97;;;36.34;21.84
42519;BME280;28147;47.520;18.920;2022-07-23T11:35:33;98271.03;;;35.14;23.75
42519;BME280;28147;47.520;18.920;2022-07-23T11:38:06;98275.84;;;34.74;24.32
42519;BME280;28147;47.520;18.920;2022-07-23T11:40:33;98275.03;;;34.88;24.91
42519;BME280;28147;47.520;18.920;2022-07-23T11:43:09;98274.78;;;35.66;24.44
42519;BME280;28147;47.520;18.920;2022-07-23T11:48:05;98274.59;;;36.50;22.89
42519;BME280;28147;47.520;18.920;2022-07-23T11:50:32;98278.22;;;36.40;23.25
42519;BME280;28147;47.520;18.920;2022-07-23T11:52:57;98266.72;;;36.45;21.57
42519;BME280;28147;47.520;18.920;2022-07-23T11:55:23;98257.41;;;36.66;22.19
42519;BME280;28147;47.520;18.920;2022-07-23T11:57:51;98247.09;;;36.67;21.65
42519;BME280;28147;47.520;18.920;2022-07-23T12:00:20;98247.03;;;36.74;22.05
42519;BME280;28147;47.520;18.920;2022-07-23T12:02:57;98248.38;;;36.59;21.79
42519;BME280;28147;47.520;18.920;2022-07-23T12:05:31;98245.31;;;36.87;21.62
42519;BME280;28147;47.520;18.920;2022-07-23T12:07:57;98231.84;;;37.20;22.78
42519;BME280;28147;47.520;18.920;2022-07-23T12:13:05;98231.69;;;36.62;22.14
42519;BME280;28147;47.520;18.920;2022-07-23T12:15:34;98227.69;;;36.67;22.22
42519;BME280;28147;47.520;18.920;2022-07-23T12:18:03;98234.97;;;36.05;22.05
42519;BME280;28147;47.520;18.920;2022-07-23T12:20:35;98229.16;;;35.85;22.66
42519;BME280;28147;47.520;18.920;2022-07-23T12:23:04;98229.69;;;35.66;23.70
42519;BME280;28147;47.520;18.920;2022-07-23T12:25:35;98228.78;;;35.76;23.46
42519;BME280;28147;47.520;18.920;2022-07-23T12:28:12;98221.31;;;36.70;22.55
42519;BME280;28147;47.520;18.920;2022-07-23T12:30:47;98216.63;;;36.63;21.56
42519;BME280;28147;47.520;18.920;2022-07-23T12:35:53;98211.88;;;37.01;21.07
42519;BME280;28147;47.520;18.920;2022-07-23T12:38:20;98204.25;;;36.71;21.65
42519;BME280;28147;47.520;18.920;2022-07-23T12:40:52;98196.66;;;37.44;21.72
42519;BME280;28147;47.520;18.920;2022-07-23T12:43:21;98184.44;;;37.65;20.53
42519;BME280;28147;47.520;18.920;2022-07-23T12:46:04;98183.91;;;37.46;21.04
42519;BME280;28147;47.520;18.920;2022-07-23T12:48:32;98189.81;;;37.76;21.19
42519;BME280;28147;47.520;18.920;2022-07-23T12:51:00;98190.88;;;37.85;20.65
42519;BME280;28147;47.520;18.920;2022-07-23T12:53:29;98192.59;;;38.03;20.96
42519;BME280;28147;47.520;18.920;2022-07-23T13:04:05;98177.22;;;36.79;21.42
42519;BME280;28147;47.520;18.920;2022-07-23T13:06:37;98192.81;;;36.24;22.19
42519;BME280;28147;47.520;18.920;2022-07-23T13:09:06;98181.06;;;36.54;21.57
42519;BME280;28147;47.520;18.920;2022-07-23T13:11:32;98185.00;;;36.95;21.64
42519;BME280;28147;47.520;18.920;2022-07-23T13:13:58;98185.56;;;36.79;20.71
42519;BME280;28147;47.520;18.920;2022-07-23T13:16:26;98175.31;;;37.07;19.60
42519;BME280;28147;47.520;18.920;2022-07-23T13:18:52;98181.44;;;37.25;20.13
42519;BME280;28147;47.520;18.920;2022-07-23T13:21:17;98168.91;;;37.40;19.92
42519;BME280;28147;47.520;18.920;2022-07-23T13:23:43;98164.19;;;37.37;20.75
42519;BME280;28147;47.520;18.920;2022-07-23T13:26:08;98162.13;;;37.14;19.74
42519;BME280;28147;47.520;18.920;2022-07-23T13:28:34;98154.59;;;36.46;19.45
42519;BME280;28147;47.520;18.920;2022-07-23T13:30:59;98163.31;;;36.48;20.21
42519;BME280;28147;47.520;18.920;2022-07-23T13:33:25;98155.78;;;36.49;19.67
42519;BME280;28147;47.520;18.920;2022-07-23T13:35:52;98152.25;;;36.41;20.15
42519;BME280;28147;47.520;18.920;2022-07-23T13:38:19;98151.78;;;36.50;20.87
42519;BME280;28147;47.520;18.920;2022-07-23T13:40:47;98142.56;;;36.60;21.88
42519;BME280;28147;47.520;18.920;2022-07-23T13:43:17;98146.22;;;36.53;21.93
42519;BME280;28147;47.520;18.920;2022-07-23T13:45:43;98144.69;;;36.49;21.93